Crystal, Idaho
Current Conditions -  °F | °C
As of 4:53 PM on Tuesday 25 Nov 2014 (Local Time) from KONO Reporting Station
Broken Clouds Broken Clouds  
Wind Chill: 43°   Ceiling: 8500
Heat Index: 43°   Visibility: 10mi
Dew Point: 37°   Wind: 3mph
Humidity: 80%   Direction: 20°NNE
Pressure: 30.25"   Gusts: NA
Location:  44.398°N, 116.943°W
Report Text: KONO 252353Z AUTO 02003KT 10SM FEW065 BKN085 06/03 A3025 RMK AO2 SLP260 T00610028 10078 20033 53001
Loading
Personal Weather Stations






























Interactive Weather Map New forecast layout! Learn more

10-Day Weather Forecast

Advertisements
Track Severe Weather on mobile